sensor_id;sensor_type;location;lat;lon;timestamp;pressure;altitude;pressure_sealevel;temperature;humidity
68197;BME280;55019;49.382;11.358;2024-03-17T00:03:59;97313.25;;;5.44;100.00
68197;BME280;55019;49.382;11.358;2024-03-17T00:06:24;97304.16;;;5.40;100.00
68197;BME280;55019;49.382;11.358;2024-03-17T00:08:50;97305.88;;;5.39;100.00
68197;BME280;55019;49.382;11.358;2024-03-17T00:11:16;97300.28;;;5.23;100.00
68197;BME280;55019;49.382;11.358;2024-03-17T00:13:41;97304.78;;;5.20;100.00
68197;BME280;55019;49.382;11.358;2024-03-17T00:16:07;97317.97;;;5.15;100.00
68197;BME280;55019;49.382;11.358;2024-03-17T00:18:33;97301.97;;;5.12;100.00
68197;BME280;55019;49.382;11.358;2024-03-17T00:20:58;97303.84;;;5.10;100.00
68197;BME280;55019;49.382;11.358;2024-03-17T00:23:25;97304.88;;;5.07;100.00
68197;BME280;55019;49.382;11.358;2024-03-17T00:25:51;97319.44;;;5.07;100.00
68197;BME280;55019;49.382;11.358;2024-03-17T00:28:16;97313.16;;;4.76;100.00
68197;BME280;55019;49.382;11.358;2024-03-17T00:30:42;97317.88;;;4.46;100.00
68197;BME280;55019;49.382;11.358;2024-03-17T00:33:10;97311.78;;;4.60;100.00
68197;BME280;55019;49.382;11.358;2024-03-17T00:35:36;97319.03;;;4.66;100.00
68197;BME280;55019;49.382;11.358;2024-03-17T00:38:02;97310.38;;;4.79;100.00
68197;BME280;55019;49.382;11.358;2024-03-17T00:40:37;97302.34;;;4.84;100.00
68197;BME280;55019;49.382;11.358;2024-03-17T00:43:03;97309.84;;;4.87;100.00
68197;BME280;55019;49.382;11.358;2024-03-17T00:45:29;97302.56;;;4.81;100.00
68197;BME280;55019;49.382;11.358;2024-03-17T00:47:54;97312.66;;;4.71;100.00
68197;BME280;55019;49.382;11.358;2024-03-17T00:50:20;97303.94;;;4.74;100.00
68197;BME280;55019;49.382;11.358;2024-03-17T00:52:46;97313.38;;;4.73;100.00
68197;BME280;55019;49.382;11.358;2024-03-17T00:55:11;97302.00;;;4.77;100.00
68197;BME280;55019;49.382;11.358;2024-03-17T00:57:40;97303.50;;;4.80;100.00
68197;BME280;55019;49.382;11.358;2024-03-17T01:00:09;97314.97;;;4.63;100.00
68197;BME280;55019;49.382;11.358;2024-03-17T01:02:38;97317.41;;;4.65;100.00
68197;BME280;55019;49.382;11.358;2024-03-17T01:05:05;97321.72;;;4.64;100.00
68197;BME280;55019;49.382;11.358;2024-03-17T01:07:32;97315.75;;;4.64;100.00
68197;BME280;55019;49.382;11.358;2024-03-17T01:09:58;97317.13;;;4.57;100.00
68197;BME280;55019;49.382;11.358;2024-03-17T01:12:23;97319.56;;;4.58;100.00
68197;BME280;55019;49.382;11.358;2024-03-17T01:14:49;97316.16;;;4.70;100.00
68197;BME280;55019;49.382;11.358;2024-03-17T01:17:15;97311.03;;;4.70;100.00
68197;BME280;55019;49.382;11.358;2024-03-17T01:19:41;97314.25;;;4.85;100.00
68197;BME280;55019;49.382;11.358;2024-03-17T01:22:07;97317.59;;;4.85;100.00
68197;BME280;55019;49.382;11.358;2024-03-17T01:24:38;97300.06;;;4.92;100.00
68197;BME280;55019;49.382;11.358;2024-03-17T01:27:08;97311.72;;;4.96;100.00
68197;BME280;55019;49.382;11.358;2024-03-17T01:29:39;97323.16;;;5.03;100.00
68197;BME280;55019;49.382;11.358;2024-03-17T01:32:05;97311.06;;;5.05;100.00
68197;BME280;55019;49.382;11.358;2024-03-17T01:34:31;97316.75;;;5.08;100.00
68197;BME280;55019;49.382;11.358;2024-03-17T01:36:57;97306.63;;;5.07;100.00
68197;BME280;55019;49.382;11.358;2024-03-17T01:39:22;97301.59;;;5.05;100.00
68197;BME280;55019;49.382;11.358;2024-03-17T01:41:48;97298.56;;;5.00;100.00
68197;BME280;55019;49.382;11.358;2024-03-17T01:44:25;97297.31;;;5.06;100.00
68197;BME280;55019;49.382;11.358;2024-03-17T01:46:52;97287.78;;;5.08;100.00
68197;BME280;55019;49.382;11.358;2024-03-17T01:49:20;97288.94;;;5.15;100.00
68197;BME280;55019;49.382;11.358;2024-03-17T01:51:46;97277.06;;;5.03;100.00
68197;BME280;55019;49.382;11.358;2024-03-17T01:54:14;97271.25;;;5.12;100.00
68197;BME280;55019;49.382;11.358;2024-03-17T01:56:41;97268.66;;;5.01;100.00
68197;BME280;55019;49.382;11.358;2024-03-17T01:59:08;97270.28;;;5.02;100.00
68197;BME280;55019;49.382;11.358;2024-03-17T02:01:37;97267.25;;;4.97;100.00
68197;BME280;55019;49.382;11.358;2024-03-17T02:04:04;97269.38;;;5.03;100.00
68197;BME280;55019;49.382;11.358;2024-03-17T02:06:31;97267.94;;;4.88;100.00
68197;BME280;55019;49.382;11.358;2024-03-17T02:08:56;97258.03;;;4.94;100.00
68197;BME280;55019;49.382;11.358;2024-03-17T02:11:32;97260.03;;;4.91;100.00
68197;BME280;55019;49.382;11.358;2024-03-17T02:14:01;97264.00;;;4.95;100.00
68197;BME280;55019;49.382;11.358;2024-03-17T02:16:27;97243.13;;;4.88;100.00
68197;BME280;55019;49.382;11.358;2024-03-17T02:18:57;97251.81;;;4.75;100.00
68197;BME280;55019;49.382;11.358;2024-03-17T02:21:24;97248.78;;;4.70;100.00
68197;BME280;55019;49.382;11.358;2024-03-17T02:23:53;97262.28;;;4.72;100.00
68197;BME280;55019;49.382;11.358;2024-03-17T02:26:19;97259.97;;;4.80;100.00
68197;BME280;55019;49.382;11.358;2024-03-17T02:28:46;97260.13;;;4.55;100.00
68197;BME280;55019;49.382;11.358;2024-03-17T02:31:16;97266.81;;;4.68;100.00
68197;BME280;55019;49.382;11.358;2024-03-17T02:33:43;97271.59;;;4.73;100.00
68197;BME280;55019;49.382;11.358;2024-03-17T02:36:09;97261.34;;;4.73;100.00
68197;BME280;55019;49.382;11.358;2024-03-17T02:38:38;97256.56;;;4.68;100.00
68197;BME280;55019;49.382;11.358;2024-03-17T02:41:22;97255.53;;;4.71;100.00
68197;BME280;55019;49.382;11.358;2024-03-17T02:43:49;97252.47;;;4.66;100.00
68197;BME280;55019;49.382;11.358;2024-03-17T02:50:14;97241.66;;;4.62;100.00
68197;BME280;55019;49.382;11.358;2024-03-17T02:52:40;97247.41;;;4.53;100.00
68197;BME280;55019;49.382;11.358;2024-03-17T02:55:06;97251.00;;;4.40;100.00
68197;BME280;55019;49.382;11.358;2024-03-17T02:57:32;97245.31;;;4.24;100.00
68197;BME280;55019;49.382;11.358;2024-03-17T02:59:58;97248.22;;;4.20;100.00
68197;BME280;55019;49.382;11.358;2024-03-17T03:02:24;97250.41;;;4.24;100.00
68197;BME280;55019;49.382;11.358;2024-03-17T03:04:50;97249.94;;;4.19;100.00
68197;BME280;55019;49.382;11.358;2024-03-17T03:07:16;97257.81;;;4.16;100.00
68197;BME280;55019;49.382;11.358;2024-03-17T03:09:42;97257.81;;;4.16;100.00
68197;BME280;55019;49.382;11.358;2024-03-17T03:12:08;97260.94;;;4.09;100.00
68197;BME280;55019;49.382;11.358;2024-03-17T03:14:34;97251.59;;;4.08;100.00
68197;BME280;55019;49.382;11.358;2024-03-17T03:17:00;97245.97;;;4.15;100.00
68197;BME280;55019;49.382;11.358;2024-03-17T03:19:26;97251.22;;;4.01;100.00
68197;BME280;55019;49.382;11.358;2024-03-17T03:21:53;97248.47;;;4.04;100.00
68197;BME280;55019;49.382;11.358;2024-03-17T03:24:18;97248.94;;;4.09;100.00
68197;BME280;55019;49.382;11.358;2024-03-17T03:26:44;97244.97;;;4.05;100.00
68197;BME280;55019;49.382;11.358;2024-03-17T03:29:10;97251.72;;;4.06;100.00
68197;BME280;55019;49.382;11.358;2024-03-17T03:31:36;97258.75;;;4.15;100.00
68197;BME280;55019;49.382;11.358;2024-03-17T03:34:04;97249.03;;;4.08;100.00
68197;BME280;55019;49.382;11.358;2024-03-17T03:36:33;97253.53;;;4.17;100.00
68197;BME280;55019;49.382;11.358;2024-03-17T03:38:59;97247.28;;;4.21;100.00
68197;BME280;55019;49.382;11.358;2024-03-17T03:41:25;97253.34;;;4.07;100.00
68197;BME280;55019;49.382;11.358;2024-03-17T03:43:51;97252.94;;;4.13;100.00
68197;BME280;55019;49.382;11.358;2024-03-17T03:46:17;97255.31;;;4.27;100.00
68197;BME280;55019;49.382;11.358;2024-03-17T03:48:43;97255.22;;;4.28;100.00
68197;BME280;55019;49.382;11.358;2024-03-17T03:51:09;97267.97;;;4.41;100.00
68197;BME280;55019;49.382;11.358;2024-03-17T03:53:36;97270.41;;;4.42;100.00
68197;BME280;55019;49.382;11.358;2024-03-17T03:56:04;97266.13;;;4.43;100.00
68197;BME280;55019;49.382;11.358;2024-03-17T03:58:34;97262.16;;;4.39;100.00
68197;BME280;55019;49.382;11.358;2024-03-17T04:01:07;97261.00;;;4.43;100.00
68197;BME280;55019;49.382;11.358;2024-03-17T04:03:33;97262.63;;;4.44;100.00
68197;BME280;55019;49.382;11.358;2024-03-17T04:42:01;97254.53;;;4.50;100.00
68197;BME280;55019;49.382;11.358;2024-03-17T04:44:28;97266.13;;;4.43;100.00
68197;BME280;55019;49.382;11.358;2024-03-17T04:46:54;97271.16;;;4.55;100.00
68197;BME280;55019;49.382;11.358;2024-03-17T04:49:20;97266.13;;;4.43;100.00
68197;BME280;55019;49.382;11.358;2024-03-17T04:51:46;97256.63;;;4.56;100.00
68197;BME280;55019;49.382;11.358;2024-03-17T04:54:11;97254.78;;;4.58;100.00
68197;BME280;55019;49.382;11.358;2024-03-17T04:56:37;97266.22;;;4.65;100.00
68197;BME280;55019;49.382;11.358;2024-03-17T04:59:03;97262.94;;;4.63;100.00
68197;BME280;55019;49.382;11.358;2024-03-17T05:01:28;97259.06;;;4.57;100.00
68197;BME280;55019;49.382;11.358;2024-03-17T05:03:56;97265.50;;;4.63;100.00
68197;BME280;55019;49.382;11.358;2024-03-17T05:06:22;97257.88;;;4.50;100.00
68197;BME280;55019;49.382;11.358;2024-03-17T05:08:48;97250.47;;;4.58;100.00
68197;BME280;55019;49.382;11.358;2024-03-17T05:11:13;97253.66;;;4.73;100.00
68197;BME280;55019;49.382;11.358;2024-03-17T05:13:41;97261.56;;;4.70;100.00
68197;BME280;55019;49.382;11.358;2024-03-17T05:16:07;97260.88;;;4.68;100.00
68197;BME280;55019;49.382;11.358;2024-03-17T05:18:32;97262.88;;;4.75;100.00
68197;BME280;55019;49.382;11.358;2024-03-17T05:20:59;97262.84;;;4.64;100.00
68197;BME280;55019;49.382;11.358;2024-03-17T05:23:28;97258.78;;;4.73;100.00
68197;BME280;55019;49.382;11.358;2024-03-17T05:25:55;97250.63;;;4.68;100.00
68197;BME280;55019;49.382;11.358;2024-03-17T05:28:22;97266.47;;;4.49;100.00
68197;BME280;55019;49.382;11.358;2024-03-17T05:30:50;97280.06;;;4.39;100.00
68197;BME280;55019;49.382;11.358;2024-03-17T05:33:17;97266.78;;;4.34;100.00
68197;BME280;55019;49.382;11.358;2024-03-17T05:38:19;97276.72;;;4.49;100.00
68197;BME280;55019;49.382;11.358;2024-03-17T05:40:58;97272.44;;;4.50;100.00
68197;BME280;55019;49.382;11.358;2024-03-17T05:43:28;97280.38;;;4.58;100.00
68197;BME280;55019;49.382;11.358;2024-03-17T05:45:59;97281.69;;;4.63;100.00
68197;BME280;55019;49.382;11.358;2024-03-17T05:48:26;97269.91;;;4.61;100.00
68197;BME280;55019;49.382;11.358;2024-03-17T05:50:52;97270.19;;;4.69;100.00
68197;BME280;55019;49.382;11.358;2024-03-17T05:53:21;97281.63;;;4.52;100.00
68197;BME280;55019;49.382;11.358;2024-03-17T05:55:49;97280.19;;;4.72;100.00
68197;BME280;55019;49.382;11.358;2024-03-17T05:58:16;97276.75;;;4.84;100.00
68197;BME280;55019;49.382;11.358;2024-03-17T06:00:41;97277.66;;;4.83;100.00
68197;BME280;55019;49.382;11.358;2024-03-17T06:03:08;97277.13;;;4.90;100.00
68197;BME280;55019;49.382;11.358;2024-03-17T06:05:39;97276.13;;;5.04;100.00
68197;BME280;55019;49.382;11.358;2024-03-17T06:08:08;97283.19;;;5.00;100.00
68197;BME280;55019;49.382;11.358;2024-03-17T06:10:36;97292.19;;;5.06;100.00
68197;BME280;55019;49.382;11.358;2024-03-17T06:13:03;97293.91;;;5.05;100.00
68197;BME280;55019;49.382;11.358;2024-03-17T06:15:29;97290.56;;;5.05;100.00
68197;BME280;55019;49.382;11.358;2024-03-17T06:17:55;97292.22;;;5.17;100.00
68197;BME280;55019;49.382;11.358;2024-03-17T06:20:23;97285.81;;;5.11;100.00
68197;BME280;55019;49.382;11.358;2024-03-17T06:22:53;97294.78;;;5.17;100.00
68197;BME280;55019;49.382;11.358;2024-03-17T06:25:19;97290.81;;;5.24;100.00
68197;BME280;55019;49.382;11.358;2024-03-17T06:27:45;97285.72;;;5.35;100.00
68197;BME280;55019;49.382;11.358;2024-03-17T06:30:12;97285.75;;;5.46;100.00
68197;BME280;55019;49.382;11.358;2024-03-17T06:32:45;97287.84;;;5.52;100.00
68197;BME280;55019;49.382;11.358;2024-03-17T06:35:17;97288.31;;;5.57;100.00
68197;BME280;55019;49.382;11.358;2024-03-17T06:37:51;97284.34;;;5.42;100.00
68197;BME280;55019;49.382;11.358;2024-03-17T06:40:18;97291.59;;;5.59;100.00
68197;BME280;55019;49.382;11.358;2024-03-17T06:42:44;97288.56;;;5.64;100.00
68197;BME280;55019;49.382;11.358;2024-03-17T06:45:10;97285.06;;;5.55;100.00
68197;BME280;55019;49.382;11.358;2024-03-17T06:47:49;97291.81;;;5.77;100.00
68197;BME280;55019;49.382;11.358;2024-03-17T06:50:15;97292.88;;;5.75;100.00
68197;BME280;55019;49.382;11.358;2024-03-17T06:52:42;97286.75;;;5.88;100.00
68197;BME280;55019;49.382;11.358;2024-03-17T06:55:14;97284.03;;;6.01;100.00
68197;BME280;55019;49.382;11.358;2024-03-17T06:57:46;97281.59;;;5.99;100.00
68197;BME280;55019;49.382;11.358;2024-03-17T07:00:13;97281.00;;;6.18;100.00
68197;BME280;55019;49.382;11.358;2024-03-17T07:02:42;97281.53;;;6.32;100.00
68197;BME280;55019;49.382;11.358;2024-03-17T07:05:13;97278.03;;;6.33;100.00
68197;BME280;55019;49.382;11.358;2024-03-17T07:07:43;97278.19;;;6.63;100.00
68197;BME280;55019;49.382;11.358;2024-03-17T07:10:09;97275.03;;;6.71;100.00
68197;BME280;55019;49.382;11.358;2024-03-17T07:12:40;97274.38;;;6.89;100.00
68197;BME280;55019;49.382;11.358;2024-03-17T07:15:06;97275.72;;;6.73;100.00
68197;BME280;55019;49.382;11.358;2024-03-17T07:17:33;97277.19;;;6.44;100.00
68197;BME280;55019;49.382;11.358;2024-03-17T07:19:59;97278.81;;;6.76;100.00
68197;BME280;55019;49.382;11.358;2024-03-17T07:22:25;97269.69;;;7.14;100.00
68197;BME280;55019;49.382;11.358;2024-03-17T07:24:52;97270.59;;;7.34;100.00
68197;BME280;55019;49.382;11.358;2024-03-17T07:27:22;97267.97;;;7.45;100.00
68197;BME280;55019;49.382;11.358;2024-03-17T07:29:48;97275.66;;;7.65;100.00
68197;BME280;55019;49.382;11.358;2024-03-17T07:32:13;97274.91;;;7.84;100.00
68197;BME280;55019;49.382;11.358;2024-03-17T07:34:39;97266.34;;;7.44;100.00
68197;BME280;55019;49.382;11.358;2024-03-17T07:37:05;97276.13;;;7.59;100.00
68197;BME280;55019;49.382;11.358;2024-03-17T07:39:31;97277.03;;;7.69;100.00
68197;BME280;55019;49.382;11.358;2024-03-17T07:42:01;97285.59;;;7.89;100.00
68197;BME280;55019;49.382;11.358;2024-03-17T07:44:30;97278.63;;;8.30;100.00
68197;BME280;55019;49.382;11.358;2024-03-17T07:47:03;97265.09;;;8.57;100.00
68197;BME280;55019;49.382;11.358;2024-03-17T07:49:30;97268.75;;;8.45;100.00
68197;BME280;55019;49.382;11.358;2024-03-17T07:51:56;97269.03;;;8.79;100.00
68197;BME280;55019;49.382;11.358;2024-03-17T07:54:24;97263.19;;;9.06;100.00
68197;BME280;55019;49.382;11.358;2024-03-17T07:56:49;97257.91;;;9.63;100.00
68197;BME280;55019;49.382;11.358;2024-03-17T07:59:15;97242.03;;;10.03;100.00
68197;BME280;55019;49.382;11.358;2024-03-17T08:01:43;97253.56;;;10.53;100.00
68197;BME280;55019;49.382;11.358;2024-03-17T08:04:09;97248.84;;;10.49;100.00
68197;BME280;55019;49.382;11.358;2024-03-17T08:06:40;97249.81;;;10.21;100.00
68197;BME280;55019;49.382;11.358;2024-03-17T08:09:09;97250.56;;;10.58;100.00
68197;BME280;55019;49.382;11.358;2024-03-17T08:11:36;97251.06;;;10.17;100.00
68197;BME280;55019;49.382;11.358;2024-03-17T08:14:01;97260.44;;;10.62;100.00
68197;BME280;55019;49.382;11.358;2024-03-17T08:16:27;97244.13;;;10.62;100.00
68197;BME280;55019;49.382;11.358;2024-03-17T08:18:55;97258.53;;;10.82;100.00
68197;BME280;55019;49.382;11.358;2024-03-17T08:21:21;97244.66;;;10.21;100.00
68197;BME280;55019;49.382;11.358;2024-03-17T08:23:46;97239.75;;;11.15;100.00
68197;BME280;55019;49.382;11.358;2024-03-17T08:26:12;97248.31;;;11.41;100.00
68197;BME280;55019;49.382;11.358;2024-03-17T08:28:38;97242.06;;;11.68;100.00
68197;BME280;55019;49.382;11.358;2024-03-17T08:31:04;97245.72;;;11.91;99.29
68197;BME280;55019;49.382;11.358;2024-03-17T08:33:30;97247.34;;;11.92;93.82
68197;BME280;55019;49.382;11.358;2024-03-17T08:36:03;97236.34;;;12.32;100.00
68197;BME280;55019;49.382;11.358;2024-03-17T08:38:31;97237.03;;;12.42;95.89
68197;BME280;55019;49.382;11.358;2024-03-17T08:41:02;97240.00;;;12.13;84.73
68197;BME280;55019;49.382;11.358;2024-03-17T08:43:28;97231.25;;;12.80;90.46
68197;BME280;55019;49.382;11.358;2024-03-17T08:48:26;97218.38;;;14.50;78.62
68197;BME280;55019;49.382;11.358;2024-03-17T08:50:59;97231.38;;;14.81;84.05
68197;BME280;55019;49.382;11.358;2024-03-17T08:53:25;97222.53;;;15.27;54.36
68197;BME280;55019;49.382;11.358;2024-03-17T08:55:52;97217.06;;;14.99;57.46
68197;BME280;55019;49.382;11.358;2024-03-17T08:58:19;97213.28;;;15.47;60.64
68197;BME280;55019;49.382;11.358;2024-03-17T09:00:44;97226.00;;;16.28;59.30
68197;BME280;55019;49.382;11.358;2024-03-17T09:03:11;97224.59;;;16.26;55.92
68197;BME280;55019;49.382;11.358;2024-03-17T09:05:39;97227.75;;;16.36;50.07
68197;BME280;55019;49.382;11.358;2024-03-17T09:08:09;97220.81;;;14.52;49.14
68197;BME280;55019;49.382;11.358;2024-03-17T09:10:40;97210.78;;;14.94;50.21
68197;BME280;55019;49.382;11.358;2024-03-17T09:13:07;97219.22;;;16.13;54.51
68197;BME280;55019;49.382;11.358;2024-03-17T09:15:33;97227.81;;;16.13;47.45
68197;BME280;55019;49.382;11.358;2024-03-17T09:17:58;97228.88;;;14.35;50.63
68197;BME280;55019;49.382;11.358;2024-03-17T09:20:24;97229.13;;;14.09;55.44
68197;BME280;55019;49.382;11.358;2024-03-17T09:23:00;97213.34;;;15.53;55.54
68197;BME280;55019;49.382;11.358;2024-03-17T09:25:37;97228.09;;;16.04;49.58
68197;BME280;55019;49.382;11.358;2024-03-17T09:28:12;97217.19;;;14.31;49.74
68197;BME280;55019;49.382;11.358;2024-03-17T09:30:47;97217.16;;;14.39;53.28
68197;BME280;55019;49.382;11.358;2024-03-17T09:33:16;97223.63;;;15.69;53.94
68197;BME280;55019;49.382;11.358;2024-03-17T09:36:00;97211.63;;;17.31;52.76
68197;BME280;55019;49.382;11.358;2024-03-17T09:38:30;97205.84;;;17.96;44.76
68197;BME280;55019;49.382;11.358;2024-03-17T09:40:59;97207.16;;;17.79;44.45
68197;BME280;55019;49.382;11.358;2024-03-17T09:43:37;97211.28;;;18.35;44.98
68197;BME280;55019;49.382;11.358;2024-03-17T09:46:04;97211.06;;;17.90;45.88
68197;BME280;55019;49.382;11.358;2024-03-17T09:48:31;97209.69;;;18.34;46.01
68197;BME280;55019;49.382;11.358;2024-03-17T09:51:01;97205.25;;;17.60;46.02
68197;BME280;55019;49.382;11.358;2024-03-17T09:53:28;97200.91;;;18.68;43.49
68197;BME280;55019;49.382;11.358;2024-03-17T09:56:12;97203.78;;;18.79;44.37
68197;BME280;55019;49.382;11.358;2024-03-17T09:58:38;97199.69;;;17.42;43.80
68197;BME280;55019;49.382;11.358;2024-03-17T10:01:04;97200.25;;;15.90;46.93
68197;BME280;55019;49.382;11.358;2024-03-17T10:03:47;97206.38;;;15.68;49.58
68197;BME280;55019;49.382;11.358;2024-03-17T10:06:25;97196.59;;;14.96;52.01
68197;BME280;55019;49.382;11.358;2024-03-17T10:08:54;97195.53;;;14.68;53.78
68197;BME280;55019;49.382;11.358;2024-03-17T10:11:22;97191.47;;;13.67;53.33
68197;BME280;55019;49.382;11.358;2024-03-17T10:14:18;97199.44;;;12.54;62.80
68197;BME280;55019;49.382;11.358;2024-03-17T10:16:44;97195.44;;;12.99;63.39
68197;BME280;55019;49.382;11.358;2024-03-17T10:19:15;97195.72;;;11.91;70.24
68197;BME280;55019;49.382;11.358;2024-03-17T10:21:43;97195.44;;;12.67;84.46
68197;BME280;55019;49.382;11.358;2024-03-17T10:26:53;97193.00;;;13.84;62.79
68197;BME280;55019;49.382;11.358;2024-03-17T10:29:26;97205.78;;;13.39;62.09
68197;BME280;55019;49.382;11.358;2024-03-17T10:32:04;97197.22;;;14.53;56.59
68197;BME280;55019;49.382;11.358;2024-03-17T10:34:31;97195.63;;;14.30;55.79
68197;BME280;55019;49.382;11.358;2024-03-17T10:37:11;97189.50;;;14.90;53.99
68197;BME280;55019;49.382;11.358;2024-03-17T10:39:37;97190.53;;;14.81;54.79
68197;BME280;55019;49.382;11.358;2024-03-17T10:42:04;97187.25;;;15.24;53.60
68197;BME280;55019;49.382;11.358;2024-03-17T10:44:38;97187.22;;;15.47;54.72
68197;BME280;55019;49.382;11.358;2024-03-17T10:47:05;97189.50;;;15.64;52.97
68197;BME280;55019;49.382;11.358;2024-03-17T10:49:36;97188.75;;;15.41;57.43
68197;BME280;55019;49.382;11.358;2024-03-17T10:52:05;97181.88;;;14.44;55.44
68197;BME280;55019;49.382;11.358;2024-03-17T10:54:32;97176.47;;;13.77;63.48
68197;BME280;55019;49.382;11.358;2024-03-17T10:59:41;97175.53;;;13.70;61.56
68197;BME280;55019;49.382;11.358;2024-03-17T11:02:21;97170.97;;;14.18;57.64
68197;BME280;55019;49.382;11.358;2024-03-17T11:04:58;97172.81;;;14.99;56.07
68197;BME280;55019;49.382;11.358;2024-03-17T11:07:25;97167.44;;;13.65;62.85
68197;BME280;55019;49.382;11.358;2024-03-17T11:09:54;97171.13;;;12.76;69.80
68197;BME280;55019;49.382;11.358;2024-03-17T11:12:46;97163.97;;;13.26;71.97
68197;BME280;55019;49.382;11.358;2024-03-17T11:17:49;97169.19;;;12.54;72.33
68197;BME280;55019;49.382;11.358;2024-03-17T11:20:27;97155.25;;;12.55;74.64
68197;BME280;55019;49.382;11.358;2024-03-17T11:22:58;97159.59;;;12.39;76.85
68197;BME280;55019;49.382;11.358;2024-03-17T11:27:53;97165.09;;;13.86;74.23
68197;BME280;55019;49.382;11.358;2024-03-17T11:33:49;97160.22;;;13.83;71.18
68197;BME280;55019;49.382;11.358;2024-03-17T11:39:10;97162.03;;;14.13;61.87
68197;BME280;55019;49.382;11.358;2024-03-17T11:41:50;97146.03;;;15.13;60.96
68197;BME280;55019;49.382;11.358;2024-03-17T11:47:03;97130.13;;;17.14;52.42
68197;BME280;55019;49.382;11.358;2024-03-17T11:49:41;97124.69;;;17.09;47.29
68197;BME280;55019;49.382;11.358;2024-03-17T11:52:14;97118.41;;;16.20;48.26
68197;BME280;55019;49.382;11.358;2024-03-17T11:54:45;97125.63;;;16.18;48.34
68197;BME280;55019;49.382;11.358;2024-03-17T11:57:21;97128.81;;;15.27;50.58
68197;BME280;55019;49.382;11.358;2024-03-17T11:59:51;97115.63;;;17.33;47.71
68197;BME280;55019;49.382;11.358;2024-03-17T12:02:20;97114.84;;;18.19;46.34
68197;BME280;55019;49.382;11.358;2024-03-17T12:04:48;97110.53;;;15.99;46.98
68197;BME280;55019;49.382;11.358;2024-03-17T12:07:15;97108.78;;;16.20;48.35
68197;BME280;55019;49.382;11.358;2024-03-17T12:09:45;97110.69;;;16.68;47.29
68197;BME280;55019;49.382;11.358;2024-03-17T12:12:17;97105.69;;;15.96;48.62
68197;BME280;55019;49.382;11.358;2024-03-17T12:14:43;97112.63;;;15.17;50.53
68197;BME280;55019;49.382;11.358;2024-03-17T12:17:21;97116.59;;;15.85;50.46
68197;BME280;55019;49.382;11.358;2024-03-17T12:19:47;97098.47;;;16.48;48.26
68197;BME280;55019;49.382;11.358;2024-03-17T12:22:22;97104.28;;;18.66;45.85
68197;BME280;55019;49.382;11.358;2024-03-17T12:24:54;97103.25;;;16.93;46.80
68197;BME280;55019;49.382;11.358;2024-03-17T12:27:22;97097.03;;;17.48;44.97
68197;BME280;55019;49.382;11.358;2024-03-17T12:29:49;97092.38;;;18.38;43.05
68197;BME280;55019;49.382;11.358;2024-03-17T12:32:16;97090.44;;;16.98;44.76
68197;BME280;55019;49.382;11.358;2024-03-17T12:34:44;97095.22;;;15.90;47.92
68197;BME280;55019;49.382;11.358;2024-03-17T12:37:21;97089.63;;;16.49;47.74
68197;BME280;55019;49.382;11.358;2024-03-17T12:39:47;97087.13;;;16.20;48.50
68197;BME280;55019;49.382;11.358;2024-03-17T12:44:50;97083.34;;;16.85;46.01
68197;BME280;55019;49.382;11.358;2024-03-17T12:47:18;97077.00;;;15.75;48.63
68197;BME280;55019;49.382;11.358;2024-03-17T12:49:49;97079.59;;;15.90;48.87
68197;BME280;55019;49.382;11.358;2024-03-17T12:52:30;97069.91;;;16.40;48.18
68197;BME280;55019;49.382;11.358;2024-03-17T12:55:00;97068.56;;;15.73;48.49
68197;BME280;55019;49.382;11.358;2024-03-17T12:57:45;97072.00;;;16.72;47.83
68197;BME280;55019;49.382;11.358;2024-03-17T13:00:30;97063.97;;;16.73;45.83
68197;BME280;55019;49.382;11.358;2024-03-17T13:03:07;97059.78;;;17.80;44.25
68197;BME280;55019;49.382;11.358;2024-03-17T13:05:36;97067.25;;;17.09;45.36
68197;BME280;55019;49.382;11.358;2024-03-17T13:08:03;97059.28;;;16.90;47.23
68197;BME280;55019;49.382;11.358;2024-03-17T13:10:30;97051.13;;;17.33;47.09
68197;BME280;55019;49.382;11.358;2024-03-17T13:13:03;97037.41;;;17.25;43.81
68197;BME280;55019;49.382;11.358;2024-03-17T13:15:30;97053.34;;;16.54;50.00
68197;BME280;55019;49.382;11.358;2024-03-17T13:17:59;97044.44;;;16.21;48.52
68197;BME280;55019;49.382;11.358;2024-03-17T13:20:25;97052.25;;;14.19;52.62
68197;BME280;55019;49.382;11.358;2024-03-17T13:22:51;97042.00;;;14.91;52.38
68197;BME280;55019;49.382;11.358;2024-03-17T13:25:19;97039.75;;;15.02;54.31
68197;BME280;55019;49.382;11.358;2024-03-17T13:27:47;97046.09;;;14.56;53.25
68197;BME280;55019;49.382;11.358;2024-03-17T13:30:18;97042.19;;;14.16;57.37
68197;BME280;55019;49.382;11.358;2024-03-17T13:32:45;97043.81;;;15.19;53.44
68197;BME280;55019;49.382;11.358;2024-03-17T13:35:17;97043.69;;;14.69;56.96
68197;BME280;55019;49.382;11.358;2024-03-17T13:37:45;97040.25;;;14.10;58.36
68197;BME280;55019;49.382;11.358;2024-03-17T13:40:15;97041.44;;;14.30;62.28
68197;BME280;55019;49.382;11.358;2024-03-17T13:42:48;97033.50;;;14.45;58.97
68197;BME280;55019;49.382;11.358;2024-03-17T13:45:14;97038.91;;;13.69;65.96
68197;BME280;55019;49.382;11.358;2024-03-17T13:47:40;97038.28;;;14.12;64.25
68197;BME280;55019;49.382;11.358;2024-03-17T13:50:07;97043.91;;;14.23;62.86
68197;BME280;55019;49.382;11.358;2024-03-17T13:52:39;97038.91;;;13.69;64.36
68197;BME280;55019;49.382;11.358;2024-03-17T13:55:14;97037.97;;;13.62;69.04
68197;BME280;55019;49.382;11.358;2024-03-17T13:57:40;97042.94;;;13.94;67.82
68197;BME280;55019;49.382;11.358;2024-03-17T14:00:07;97036.00;;;13.25;69.50
68197;BME280;55019;49.382;11.358;2024-03-17T14:02:37;97034.03;;;13.66;79.49
68197;BME280;55019;49.382;11.358;2024-03-17T14:05:03;97037.88;;;13.78;65.64
68197;BME280;55019;49.382;11.358;2024-03-17T14:07:33;97039.31;;;14.33;62.11